sensor_id;sensor_type;location;lat;lon;timestamp;temperature;humidity
15700;DHT22;7950;42.744;23.174;2024-03-02T00:01:59;7.60;99.90
15700;DHT22;7950;42.744;23.174;2024-03-02T00:04:29;7.50;99.90
15700;DHT22;7950;42.744;23.174;2024-03-02T00:06:58;7.50;99.90
15700;DHT22;7950;42.744;23.174;2024-03-02T00:09:27;7.40;99.90
15700;DHT22;7950;42.744;23.174;2024-03-02T00:11:56;7.40;99.90
15700;DHT22;7950;42.744;23.174;2024-03-02T00:14:24;7.40;99.90
15700;DHT22;7950;42.744;23.174;2024-03-02T00:16:55;7.40;99.90
15700;DHT22;7950;42.744;23.174;2024-03-02T00:19:24;7.40;99.90
15700;DHT22;7950;42.744;23.174;2024-03-02T00:21:54;7.40;99.90
15700;DHT22;7950;42.744;23.174;2024-03-02T00:24:30;7.50;99.90
15700;DHT22;7950;42.744;23.174;2024-03-02T00:27:01;7.50;99.90
15700;DHT22;7950;42.744;23.174;2024-03-02T00:29:32;7.50;99.90
15700;DHT22;7950;42.744;23.174;2024-03-02T00:32:01;7.50;99.90
15700;DHT22;7950;42.744;23.174;2024-03-02T00:34:29;7.50;99.90
15700;DHT22;7950;42.744;23.174;2024-03-02T00:36:59;7.50;99.90
15700;DHT22;7950;42.744;23.174;2024-03-02T00:39:29;7.50;99.90
15700;DHT22;7950;42.744;23.174;2024-03-02T00:41:58;7.60;99.90
15700;DHT22;7950;42.744;23.174;2024-03-02T00:44:27;7.60;99.90
15700;DHT22;7950;42.744;23.174;2024-03-02T00:46:58;7.60;99.90
15700;DHT22;7950;42.744;23.174;2024-03-02T00:49:27;7.70;99.90
15700;DHT22;7950;42.744;23.174;2024-03-02T00:51:57;7.70;99.90
15700;DHT22;7950;42.744;23.174;2024-03-02T00:54:27;7.70;99.90
15700;DHT22;7950;42.744;23.174;2024-03-02T00:56:57;7.80;99.90
15700;DHT22;7950;42.744;23.174;2024-03-02T00:59:26;7.80;99.90
15700;DHT22;7950;42.744;23.174;2024-03-02T01:01:54;7.70;99.90
15700;DHT22;7950;42.744;23.174;2024-03-02T01:04:23;7.70;99.90
15700;DHT22;7950;42.744;23.174;2024-03-02T01:06:51;7.70;99.90
15700;DHT22;7950;42.744;23.174;2024-03-02T01:09:21;7.70;99.90
15700;DHT22;7950;42.744;23.174;2024-03-02T01:11:50;7.70;99.90
15700;DHT22;7950;42.744;23.174;2024-03-02T01:14:18;7.70;99.90
15700;DHT22;7950;42.744;23.174;2024-03-02T01:16:47;7.70;99.90
15700;DHT22;7950;42.744;23.174;2024-03-02T01:19:16;7.70;99.90
15700;DHT22;7950;42.744;23.174;2024-03-02T01:21:45;7.70;99.90
15700;DHT22;7950;42.744;23.174;2024-03-02T01:24:13;7.70;99.90
15700;DHT22;7950;42.744;23.174;2024-03-02T01:26:43;7.70;99.90
15700;DHT22;7950;42.744;23.174;2024-03-02T01:29:11;7.70;99.90
15700;DHT22;7950;42.744;23.174;2024-03-02T01:31:40;7.70;99.90
15700;DHT22;7950;42.744;23.174;2024-03-02T01:34:09;7.70;99.90
15700;DHT22;7950;42.744;23.174;2024-03-02T01:36:38;7.70;99.90
15700;DHT22;7950;42.744;23.174;2024-03-02T01:39:06;7.70;99.90
15700;DHT22;7950;42.744;23.174;2024-03-02T01:41:36;7.70;99.90
15700;DHT22;7950;42.744;23.174;2024-03-02T01:44:06;7.70;99.90
15700;DHT22;7950;42.744;23.174;2024-03-02T01:46:34;7.70;99.90
15700;DHT22;7950;42.744;23.174;2024-03-02T01:49:03;7.70;99.90
15700;DHT22;7950;42.744;23.174;2024-03-02T01:51:32;7.70;99.90
15700;DHT22;7950;42.744;23.174;2024-03-02T01:54:00;7.70;99.90
15700;DHT22;7950;42.744;23.174;2024-03-02T01:56:29;7.70;99.90
15700;DHT22;7950;42.744;23.174;2024-03-02T01:58:58;7.70;99.90
15700;DHT22;7950;42.744;23.174;2024-03-02T02:01:28;7.80;99.90
15700;DHT22;7950;42.744;23.174;2024-03-02T02:03:56;7.80;99.90
15700;DHT22;7950;42.744;23.174;2024-03-02T02:06:25;7.70;99.90
15700;DHT22;7950;42.744;23.174;2024-03-02T02:08:54;7.80;99.90
15700;DHT22;7950;42.744;23.174;2024-03-02T02:11:22;7.70;99.90
15700;DHT22;7950;42.744;23.174;2024-03-02T02:13:52;7.70;99.90
15700;DHT22;7950;42.744;23.174;2024-03-02T02:16:22;7.70;99.90
15700;DHT22;7950;42.744;23.174;2024-03-02T02:18:52;7.70;99.90
15700;DHT22;7950;42.744;23.174;2024-03-02T02:21:24;7.70;99.90
15700;DHT22;7950;42.744;23.174;2024-03-02T02:23:53;7.70;99.90
15700;DHT22;7950;42.744;23.174;2024-03-02T02:26:21;7.70;99.90
15700;DHT22;7950;42.744;23.174;2024-03-02T02:28:50;7.70;99.90
15700;DHT22;7950;42.744;23.174;2024-03-02T02:31:18;7.70;99.90
15700;DHT22;7950;42.744;23.174;2024-03-02T02:33:47;7.70;99.90
15700;DHT22;7950;42.744;23.174;2024-03-02T02:36:15;7.80;99.90
15700;DHT22;7950;42.744;23.174;2024-03-02T02:38:46;7.80;99.90
15700;DHT22;7950;42.744;23.174;2024-03-02T02:41:17;7.80;99.90
15700;DHT22;7950;42.744;23.174;2024-03-02T02:43:45;7.80;99.90
15700;DHT22;7950;42.744;23.174;2024-03-02T02:46:14;7.70;99.90
15700;DHT22;7950;42.744;23.174;2024-03-02T02:48:42;7.70;99.90
15700;DHT22;7950;42.744;23.174;2024-03-02T02:51:11;7.70;99.90
15700;DHT22;7950;42.744;23.174;2024-03-02T02:53:39;7.70;99.90
15700;DHT22;7950;42.744;23.174;2024-03-02T02:56:10;7.70;99.90
15700;DHT22;7950;42.744;23.174;2024-03-02T02:58:40;7.70;99.90
15700;DHT22;7950;42.744;23.174;2024-03-02T03:01:09;7.70;99.90
15700;DHT22;7950;42.744;23.174;2024-03-02T03:03:38;7.70;99.90
15700;DHT22;7950;42.744;23.174;2024-03-02T03:06:06;7.70;99.90
15700;DHT22;7950;42.744;23.174;2024-03-02T03:08:35;7.70;99.90
15700;DHT22;7950;42.744;23.174;2024-03-02T03:11:03;7.70;99.90
15700;DHT22;7950;42.744;23.174;2024-03-02T03:13:34;7.70;99.90
15700;DHT22;7950;42.744;23.174;2024-03-02T03:16:04;7.70;99.90
15700;DHT22;7950;42.744;23.174;2024-03-02T03:18:32;7.70;99.90
15700;DHT22;7950;42.744;23.174;2024-03-02T03:21:01;7.80;99.90
15700;DHT22;7950;42.744;23.174;2024-03-02T03:23:30;7.80;99.90
15700;DHT22;7950;42.744;23.174;2024-03-02T03:25:58;7.80;99.90
15700;DHT22;7950;42.744;23.174;2024-03-02T03:28:27;7.80;99.90
15700;DHT22;7950;42.744;23.174;2024-03-02T03:30:57;7.80;99.90
15700;DHT22;7950;42.744;23.174;2024-03-02T03:33:25;7.80;99.90
15700;DHT22;7950;42.744;23.174;2024-03-02T03:35:54;7.80;99.90
15700;DHT22;7950;42.744;23.174;2024-03-02T03:38:23;7.80;99.90
15700;DHT22;7950;42.744;23.174;2024-03-02T03:40:51;7.80;99.90
15700;DHT22;7950;42.744;23.174;2024-03-02T03:43:19;7.80;99.90
15700;DHT22;7950;42.744;23.174;2024-03-02T03:45:48;7.80;99.90
15700;DHT22;7950;42.744;23.174;2024-03-02T03:48:18;7.80;99.90
15700;DHT22;7950;42.744;23.174;2024-03-02T03:50:46;7.80;99.90
15700;DHT22;7950;42.744;23.174;2024-03-02T03:53:15;7.80;99.90
15700;DHT22;7950;42.744;23.174;2024-03-02T03:55:43;7.80;99.90
15700;DHT22;7950;42.744;23.174;2024-03-02T03:58:13;7.80;99.90
15700;DHT22;7950;42.744;23.174;2024-03-02T04:00:46;7.80;99.90
15700;DHT22;7950;42.744;23.174;2024-03-02T04:03:14;7.80;99.90
15700;DHT22;7950;42.744;23.174;2024-03-02T04:05:45;7.80;99.90
15700;DHT22;7950;42.744;23.174;2024-03-02T04:08:13;7.80;99.90
15700;DHT22;7950;42.744;23.174;2024-03-02T04:10:42;7.80;99.90
15700;DHT22;7950;42.744;23.174;2024-03-02T04:13:10;7.80;99.90
15700;DHT22;7950;42.744;23.174;2024-03-02T04:15:39;7.80;99.90
15700;DHT22;7950;42.744;23.174;2024-03-02T04:18:08;7.80;99.90
15700;DHT22;7950;42.744;23.174;2024-03-02T04:20:37;7.80;99.90
15700;DHT22;7950;42.744;23.174;2024-03-02T04:23:07;7.80;99.90
15700;DHT22;7950;42.744;23.174;2024-03-02T04:25:34;7.80;99.90
15700;DHT22;7950;42.744;23.174;2024-03-02T04:28:03;7.80;99.90
15700;DHT22;7950;42.744;23.174;2024-03-02T04:30:32;7.80;99.90
15700;DHT22;7950;42.744;23.174;2024-03-02T04:33:00;7.80;99.90
15700;DHT22;7950;42.744;23.174;2024-03-02T04:35:30;7.80;99.90
15700;DHT22;7950;42.744;23.174;2024-03-02T04:37:59;7.80;99.90
15700;DHT22;7950;42.744;23.174;2024-03-02T04:40:29;7.80;99.90
15700;DHT22;7950;42.744;23.174;2024-03-02T04:42:57;7.80;99.90
15700;DHT22;7950;42.744;23.174;2024-03-02T04:45:26;7.80;99.90
15700;DHT22;7950;42.744;23.174;2024-03-02T04:47:55;7.80;99.90
15700;DHT22;7950;42.744;23.174;2024-03-02T04:50:23;7.80;99.90
15700;DHT22;7950;42.744;23.174;2024-03-02T04:52:52;7.80;99.90
15700;DHT22;7950;42.744;23.174;2024-03-02T04:55:20;7.80;99.90
15700;DHT22;7950;42.744;23.174;2024-03-02T04:58:13;7.80;99.90
15700;DHT22;7950;42.744;23.174;2024-03-02T05:00:42;7.80;99.90
15700;DHT22;7950;42.744;23.174;2024-03-02T05:03:13;7.80;99.90
15700;DHT22;7950;42.744;23.174;2024-03-02T05:05:42;7.70;99.90
15700;DHT22;7950;42.744;23.174;2024-03-02T05:08:11;7.70;99.90
15700;DHT22;7950;42.744;23.174;2024-03-02T05:10:40;7.70;99.90
15700;DHT22;7950;42.744;23.174;2024-03-02T05:13:08;7.70;99.90
15700;DHT22;7950;42.744;23.174;2024-03-02T05:15:38;7.70;99.90
15700;DHT22;7950;42.744;23.174;2024-03-02T05:18:07;7.70;99.90
15700;DHT22;7950;42.744;23.174;2024-03-02T05:20:36;7.70;99.90
15700;DHT22;7950;42.744;23.174;2024-03-02T05:23:04;7.70;99.90
15700;DHT22;7950;42.744;23.174;2024-03-02T05:25:33;7.70;99.90
15700;DHT22;7950;42.744;23.174;2024-03-02T05:28:02;7.70;99.90
15700;DHT22;7950;42.744;23.174;2024-03-02T05:30:31;7.70;99.90
15700;DHT22;7950;42.744;23.174;2024-03-02T05:33:01;7.70;99.90
15700;DHT22;7950;42.744;23.174;2024-03-02T05:35:30;7.70;99.90
15700;DHT22;7950;42.744;23.174;2024-03-02T05:37:59;7.80;99.90
15700;DHT22;7950;42.744;23.174;2024-03-02T05:40:28;7.80;99.90
15700;DHT22;7950;42.744;23.174;2024-03-02T05:42:56;7.80;99.90
15700;DHT22;7950;42.744;23.174;2024-03-02T05:45:25;7.80;99.90
15700;DHT22;7950;42.744;23.174;2024-03-02T05:47:53;7.80;99.90
15700;DHT22;7950;42.744;23.174;2024-03-02T05:50:23;7.80;99.90
15700;DHT22;7950;42.744;23.174;2024-03-02T05:52:52;7.80;99.90
15700;DHT22;7950;42.744;23.174;2024-03-02T05:55:20;7.80;99.90
15700;DHT22;7950;42.744;23.174;2024-03-02T05:57:49;7.80;99.90
15700;DHT22;7950;42.744;23.174;2024-03-02T06:00:29;7.80;99.90
15700;DHT22;7950;42.744;23.174;2024-03-02T06:02:58;7.90;99.90
15700;DHT22;7950;42.744;23.174;2024-03-02T06:05:28;7.80;99.90
15700;DHT22;7950;42.744;23.174;2024-03-02T06:07:57;7.80;99.90
15700;DHT22;7950;42.744;23.174;2024-03-02T06:10:25;7.90;99.90
15700;DHT22;7950;42.744;23.174;2024-03-02T06:12:54;7.80;99.90
15700;DHT22;7950;42.744;23.174;2024-03-02T06:15:22;7.80;99.90
15700;DHT22;7950;42.744;23.174;2024-03-02T06:17:51;7.80;99.90
15700;DHT22;7950;42.744;23.174;2024-03-02T06:20:20;7.80;99.90
15700;DHT22;7950;42.744;23.174;2024-03-02T06:22:50;7.90;99.90
15700;DHT22;7950;42.744;23.174;2024-03-02T06:25:19;7.90;99.90
15700;DHT22;7950;42.744;23.174;2024-03-02T06:27:47;7.90;99.90
15700;DHT22;7950;42.744;23.174;2024-03-02T06:30:16;7.90;99.90
15700;DHT22;7950;42.744;23.174;2024-03-02T06:32:45;7.90;99.90
15700;DHT22;7950;42.744;23.174;2024-03-02T06:35:13;7.90;99.90
15700;DHT22;7950;42.744;23.174;2024-03-02T06:37:42;7.80;99.90
15700;DHT22;7950;42.744;23.174;2024-03-02T06:40:12;7.80;99.90
15700;DHT22;7950;42.744;23.174;2024-03-02T06:42:40;7.80;99.90
15700;DHT22;7950;42.744;23.174;2024-03-02T06:45:09;7.70;99.90
15700;DHT22;7950;42.744;23.174;2024-03-02T06:47:38;7.70;99.90
15700;DHT22;7950;42.744;23.174;2024-03-02T06:50:07;7.70;99.90
15700;DHT22;7950;42.744;23.174;2024-03-02T06:52:36;7.70;99.90
15700;DHT22;7950;42.744;23.174;2024-03-02T06:55:06;7.70;99.90
15700;DHT22;7950;42.744;23.174;2024-03-02T06:57:36;7.70;99.90
15700;DHT22;7950;42.744;23.174;2024-03-02T07:00:06;7.70;99.90
15700;DHT22;7950;42.744;23.174;2024-03-02T07:02:36;7.70;99.90
15700;DHT22;7950;42.744;23.174;2024-03-02T07:05:04;7.70;99.90
15700;DHT22;7950;42.744;23.174;2024-03-02T07:07:34;7.80;99.90
15700;DHT22;7950;42.744;23.174;2024-03-02T07:10:04;7.80;99.90
15700;DHT22;7950;42.744;23.174;2024-03-02T07:12:36;7.80;99.90
15700;DHT22;7950;42.744;23.174;2024-03-02T07:15:05;7.80;99.90
15700;DHT22;7950;42.744;23.174;2024-03-02T07:17:51;7.70;99.90
15700;DHT22;7950;42.744;23.174;2024-03-02T07:20:20;7.70;99.90
15700;DHT22;7950;42.744;23.174;2024-03-02T07:22:48;7.70;99.90
15700;DHT22;7950;42.744;23.174;2024-03-02T07:25:17;7.60;99.90
15700;DHT22;7950;42.744;23.174;2024-03-02T07:27:50;7.60;99.90
15700;DHT22;7950;42.744;23.174;2024-03-02T07:30:20;7.70;99.90
15700;DHT22;7950;42.744;23.174;2024-03-02T07:32:50;7.70;99.90
15700;DHT22;7950;42.744;23.174;2024-03-02T07:35:19;7.70;99.90
15700;DHT22;7950;42.744;23.174;2024-03-02T07:37:48;7.70;99.90
15700;DHT22;7950;42.744;23.174;2024-03-02T07:40:17;7.80;99.90
15700;DHT22;7950;42.744;23.174;2024-03-02T07:42:45;7.80;99.90
15700;DHT22;7950;42.744;23.174;2024-03-02T07:45:15;7.80;99.90
15700;DHT22;7950;42.744;23.174;2024-03-02T07:47:44;7.80;99.90
15700;DHT22;7950;42.744;23.174;2024-03-02T07:50:14;7.80;99.90
15700;DHT22;7950;42.744;23.174;2024-03-02T07:52:42;7.90;99.90
15700;DHT22;7950;42.744;23.174;2024-03-02T07:55:11;7.90;99.90
15700;DHT22;7950;42.744;23.174;2024-03-02T07:57:40;7.90;99.90
15700;DHT22;7950;42.744;23.174;2024-03-02T08:00:10;8.00;99.90
15700;DHT22;7950;42.744;23.174;2024-03-02T08:02:43;8.00;99.90
15700;DHT22;7950;42.744;23.174;2024-03-02T08:05:11;8.00;99.90
15700;DHT22;7950;42.744;23.174;2024-03-02T08:07:40;8.10;99.90
15700;DHT22;7950;42.744;23.174;2024-03-02T08:10:09;8.00;99.90
15700;DHT22;7950;42.744;23.174;2024-03-02T08:12:37;8.00;99.90
15700;DHT22;7950;42.744;23.174;2024-03-02T08:15:07;8.00;99.90
15700;DHT22;7950;42.744;23.174;2024-03-02T08:17:35;7.90;99.90
15700;DHT22;7950;42.744;23.174;2024-03-02T08:20:07;7.90;99.90
15700;DHT22;7950;42.744;23.174;2024-03-02T08:22:36;8.00;99.90
15700;DHT22;7950;42.744;23.174;2024-03-02T08:25:06;8.00;99.90
15700;DHT22;7950;42.744;23.174;2024-03-02T08:27:37;8.00;99.90
15700;DHT22;7950;42.744;23.174;2024-03-02T08:30:09;8.00;99.90
15700;DHT22;7950;42.744;23.174;2024-03-02T08:32:38;8.00;99.90
15700;DHT22;7950;42.744;23.174;2024-03-02T08:35:09;8.00;99.90
15700;DHT22;7950;42.744;23.174;2024-03-02T08:37:39;8.00;99.90
15700;DHT22;7950;42.744;23.174;2024-03-02T08:40:08;7.90;99.90
15700;DHT22;7950;42.744;23.174;2024-03-02T08:42:42;8.00;99.90
15700;DHT22;7950;42.744;23.174;2024-03-02T08:45:10;8.00;99.90
15700;DHT22;7950;42.744;23.174;2024-03-02T08:47:39;8.10;99.90
15700;DHT22;7950;42.744;23.174;2024-03-02T08:50:09;8.10;99.90
15700;DHT22;7950;42.744;23.174;2024-03-02T08:52:37;8.10;99.90
15700;DHT22;7950;42.744;23.174;2024-03-02T08:55:07;8.20;99.90
15700;DHT22;7950;42.744;23.174;2024-03-02T08:57:36;8.20;99.90
15700;DHT22;7950;42.744;23.174;2024-03-02T09:10:47;8.20;99.90
15700;DHT22;7950;42.744;23.174;2024-03-02T09:13:16;8.50;99.90
15700;DHT22;7950;42.744;23.174;2024-03-02T09:15:45;8.60;99.90
15700;DHT22;7950;42.744;23.174;2024-03-02T09:18:13;8.60;99.90
15700;DHT22;7950;42.744;23.174;2024-03-02T09:20:42;8.70;99.90
15700;DHT22;7950;42.744;23.174;2024-03-02T09:23:11;8.70;99.90
15700;DHT22;7950;42.744;23.174;2024-03-02T09:25:40;8.70;99.90
15700;DHT22;7950;42.744;23.174;2024-03-02T09:28:11;8.70;99.90
15700;DHT22;7950;42.744;23.174;2024-03-02T09:30:39;8.80;99.90
15700;DHT22;7950;42.744;23.174;2024-03-02T09:33:08;8.80;99.90
15700;DHT22;7950;42.744;23.174;2024-03-02T09:35:39;8.90;99.90
15700;DHT22;7950;42.744;23.174;2024-03-02T09:38:08;8.80;99.90
15700;DHT22;7950;42.744;23.174;2024-03-02T09:40:36;8.90;99.90
15700;DHT22;7950;42.744;23.174;2024-03-02T09:43:05;8.80;99.90
15700;DHT22;7950;42.744;23.174;2024-03-02T09:45:35;8.80;99.90
15700;DHT22;7950;42.744;23.174;2024-03-02T09:48:05;8.70;99.90
15700;DHT22;7950;42.744;23.174;2024-03-02T09:50:34;8.80;99.90
15700;DHT22;7950;42.744;23.174;2024-03-02T09:53:03;8.70;99.90
15700;DHT22;7950;42.744;23.174;2024-03-02T09:55:33;8.70;99.90
15700;DHT22;7950;42.744;23.174;2024-03-02T09:58:01;8.70;99.90
15700;DHT22;7950;42.744;23.174;2024-03-02T10:00:31;8.70;99.90
15700;DHT22;7950;42.744;23.174;2024-03-02T10:03:02;8.70;99.90
15700;DHT22;7950;42.744;23.174;2024-03-02T10:05:31;8.80;99.90
15700;DHT22;7950;42.744;23.174;2024-03-02T10:08:01;8.80;99.90
15700;DHT22;7950;42.744;23.174;2024-03-02T10:10:37;8.90;99.90
15700;DHT22;7950;42.744;23.174;2024-03-02T10:13:09;8.90;99.90
15700;DHT22;7950;42.744;23.174;2024-03-02T10:15:40;9.00;99.90
15700;DHT22;7950;42.744;23.174;2024-03-02T10:18:12;9.10;99.90
15700;DHT22;7950;42.744;23.174;2024-03-02T10:20:42;9.10;99.90
15700;DHT22;7950;42.744;23.174;2024-03-02T10:23:12;9.10;99.90
15700;DHT22;7950;42.744;23.174;2024-03-02T10:25:41;9.20;99.90
15700;DHT22;7950;42.744;23.174;2024-03-02T10:28:23;9.30;99.90
15700;DHT22;7950;42.744;23.174;2024-03-02T10:30:55;9.30;99.90
15700;DHT22;7950;42.744;23.174;2024-03-02T10:33:25;9.40;99.90
15700;DHT22;7950;42.744;23.174;2024-03-02T10:35:54;9.50;99.90
15700;DHT22;7950;42.744;23.174;2024-03-02T10:38:23;9.60;99.90
15700;DHT22;7950;42.744;23.174;2024-03-02T10:40:51;9.70;99.90
15700;DHT22;7950;42.744;23.174;2024-03-02T10:43:22;9.70;99.90
15700;DHT22;7950;42.744;23.174;2024-03-02T10:45:52;9.70;99.90
15700;DHT22;7950;42.744;23.174;2024-03-02T10:48:22;9.70;99.90
15700;DHT22;7950;42.744;23.174;2024-03-02T10:50:53;9.70;99.90
15700;DHT22;7950;42.744;23.174;2024-03-02T10:53:24;9.80;99.90
15700;DHT22;7950;42.744;23.174;2024-03-02T10:55:57;9.80;99.90
15700;DHT22;7950;42.744;23.174;2024-03-02T10:58:33;9.80;99.90
15700;DHT22;7950;42.744;23.174;2024-03-02T11:01:03;9.70;99.90
15700;DHT22;7950;42.744;23.174;2024-03-02T11:03:35;9.70;99.90
15700;DHT22;7950;42.744;23.174;2024-03-02T11:06:08;9.60;99.90
15700;DHT22;7950;42.744;23.174;2024-03-02T11:08:38;9.60;99.90
15700;DHT22;7950;42.744;23.174;2024-03-02T11:11:14;9.60;99.90
15700;DHT22;7950;42.744;23.174;2024-03-02T11:13:49;9.60;99.90
15700;DHT22;7950;42.744;23.174;2024-03-02T11:16:24;9.60;99.90
15700;DHT22;7950;42.744;23.174;2024-03-02T11:19:04;9.60;99.90
15700;DHT22;7950;42.744;23.174;2024-03-02T11:21:35;9.60;99.90
15700;DHT22;7950;42.744;23.174;2024-03-02T11:24:32;9.60;99.90
15700;DHT22;7950;42.744;23.174;2024-03-02T11:27:05;9.60;99.90
15700;DHT22;7950;42.744;23.174;2024-03-02T11:29:45;9.60;99.90
15700;DHT22;7950;42.744;23.174;2024-03-02T11:32:15;9.60;99.90
15700;DHT22;7950;42.744;23.174;2024-03-02T11:34:49;9.70;99.90
15700;DHT22;7950;42.744;23.174;2024-03-02T11:37:19;9.70;99.90
15700;DHT22;7950;42.744;23.174;2024-03-02T11:39:50;9.70;99.90
15700;DHT22;7950;42.744;23.174;2024-03-02T11:42:19;9.70;99.90
15700;DHT22;7950;42.744;23.174;2024-03-02T11:44:48;9.80;99.90
15700;DHT22;7950;42.744;23.174;2024-03-02T11:47:18;9.80;99.90
15700;DHT22;7950;42.744;23.174;2024-03-02T11:49:49;9.90;99.90
15700;DHT22;7950;42.744;23.174;2024-03-02T11:52:19;10.00;99.90
15700;DHT22;7950;42.744;23.174;2024-03-02T11:54:48;10.10;99.90
15700;DHT22;7950;42.744;23.174;2024-03-02T11:57:20;10.10;99.90
15700;DHT22;7950;42.744;23.174;2024-03-02T11:59:50;10.10;99.90
15700;DHT22;7950;42.744;23.174;2024-03-02T12:02:20;10.10;99.90
15700;DHT22;7950;42.744;23.174;2024-03-02T12:04:51;10.10;99.90
15700;DHT22;7950;42.744;23.174;2024-03-02T12:07:20;10.10;99.90
15700;DHT22;7950;42.744;23.174;2024-03-02T12:09:59;10.00;99.90
15700;DHT22;7950;42.744;23.174;2024-03-02T12:12:29;10.00;99.90
15700;DHT22;7950;42.744;23.174;2024-03-02T12:14:57;10.00;99.90
15700;DHT22;7950;42.744;23.174;2024-03-02T12:17:28;10.00;99.90
15700;DHT22;7950;42.744;23.174;2024-03-02T12:19:59;9.90;99.90
15700;DHT22;7950;42.744;23.174;2024-03-02T12:22:31;9.80;99.90
15700;DHT22;7950;42.744;23.174;2024-03-02T12:24:59;9.70;99.90
15700;DHT22;7950;42.744;23.174;2024-03-02T12:27:28;9.60;99.90
15700;DHT22;7950;42.744;23.174;2024-03-02T12:29:57;9.60;99.90
15700;DHT22;7950;42.744;23.174;2024-03-02T12:32:25;9.50;99.90
15700;DHT22;7950;42.744;23.174;2024-03-02T12:34:55;9.50;99.90
15700;DHT22;7950;42.744;23.174;2024-03-02T12:37:25;9.50;99.90
15700;DHT22;7950;42.744;23.174;2024-03-02T12:39:54;9.40;99.90
15700;DHT22;7950;42.744;23.174;2024-03-02T12:42:24;9.40;99.90
15700;DHT22;7950;42.744;23.174;2024-03-02T12:44:52;9.40;99.90
15700;DHT22;7950;42.744;23.174;2024-03-02T12:47:22;9.40;99.90
15700;DHT22;7950;42.744;23.174;2024-03-02T12:49:51;9.40;99.90
15700;DHT22;7950;42.744;23.174;2024-03-02T12:52:21;9.50;99.90
15700;DHT22;7950;42.744;23.174;2024-03-02T12:54:51;9.50;99.90
15700;DHT22;7950;42.744;23.174;2024-03-02T12:57:28;9.50;99.90
15700;DHT22;7950;42.744;23.174;2024-03-02T12:59:58;9.40;99.90
15700;DHT22;7950;42.744;23.174;2024-03-02T13:02:28;9.40;99.90
15700;DHT22;7950;42.744;23.174;2024-03-02T13:04:58;9.40;99.90
15700;DHT22;7950;42.744;23.174;2024-03-02T13:07:28;9.40;99.90
15700;DHT22;7950;42.744;23.174;2024-03-02T13:09:58;9.40;99.90
15700;DHT22;7950;42.744;23.174;2024-03-02T13:12:28;9.50;99.90
15700;DHT22;7950;42.744;23.174;2024-03-02T13:14:59;9.60;99.90
15700;DHT22;7950;42.744;23.174;2024-03-02T13:17:27;9.60;99.90
15700;DHT22;7950;42.744;23.174;2024-03-02T13:20:03;9.60;99.90
15700;DHT22;7950;42.744;23.174;2024-03-02T13:22:35;9.50;99.90
15700;DHT22;7950;42.744;23.174;2024-03-02T13:25:06;9.60;99.90
15700;DHT22;7950;42.744;23.174;2024-03-02T13:27:37;9.60;99.90
15700;DHT22;7950;42.744;23.174;2024-03-02T13:30:07;9.60;99.90
15700;DHT22;7950;42.744;23.174;2024-03-02T13:32:36;9.60;99.90
15700;DHT22;7950;42.744;23.174;2024-03-02T13:35:05;9.60;99.90
15700;DHT22;7950;42.744;23.174;2024-03-02T13:37:34;9.60;99.90
15700;DHT22;7950;42.744;23.174;2024-03-02T13:40:08;9.60;99.90
15700;DHT22;7950;42.744;23.174;2024-03-02T13:42:40;9.50;99.90
15700;DHT22;7950;42.744;23.174;2024-03-02T13:45:09;9.50;99.90
15700;DHT22;7950;42.744;23.174;2024-03-02T13:47:38;9.50;99.90
15700;DHT22;7950;42.744;23.174;2024-03-02T13:50:07;9.60;99.90
15700;DHT22;7950;42.744;23.174;2024-03-02T13:52:36;9.60;99.90
15700;DHT22;7950;42.744;23.174;2024-03-02T13:55:07;9.50;99.90
15700;DHT22;7950;42.744;23.174;2024-03-02T13:57:36;9.50;99.90
15700;DHT22;7950;42.744;23.174;2024-03-02T14:00:06;9.40;99.90
15700;DHT22;7950;42.744;23.174;2024-03-02T14:02:38;9.40;99.90
15700;DHT22;7950;42.744;23.174;2024-03-02T14:05:07;9.40;99.90
15700;DHT22;7950;42.744;23.174;2024-03-02T14:07:38;9.50;99.90
15700;DHT22;7950;42.744;23.174;2024-03-02T14:10:09;9.50;99.90
15700;DHT22;7950;42.744;23.174;2024-03-02T14:12:38;9.50;99.90
15700;DHT22;7950;42.744;23.174;2024-03-02T14:15:07;9.60;99.90
15700;DHT22;7950;42.744;23.174;2024-03-02T14:17:36;9.60;99.90
15700;DHT22;7950;42.744;23.174;2024-03-02T14:20:05;9.70;99.90
15700;DHT22;7950;42.744;23.174;2024-03-02T14:22:37;9.80;99.90
15700;DHT22;7950;42.744;23.174;2024-03-02T14:25:08;9.80;99.90
15700;DHT22;7950;42.744;23.174;2024-03-02T14:27:36;9.90;99.90
15700;DHT22;7950;42.744;23.174;2024-03-02T14:30:10;10.00;99.90
15700;DHT22;7950;42.744;23.174;2024-03-02T14:32:39;10.00;99.90
15700;DHT22;7950;42.744;23.174;2024-03-02T14:35:08;10.00;99.90
15700;DHT22;7950;42.744;23.174;2024-03-02T14:37:38;10.10;99.90
15700;DHT22;7950;42.744;23.174;2024-03-02T14:40:10;10.10;99.90
15700;DHT22;7950;42.744;23.174;2024-03-02T14:42:39;10.10;99.90
15700;DHT22;7950;42.744;23.174;2024-03-02T14:45:09;10.20;99.90
15700;DHT22;7950;42.744;23.174;2024-03-02T14:47:38;10.20;99.90
15700;DHT22;7950;42.744;23.174;2024-03-02T14:50:07;10.20;99.90
15700;DHT22;7950;42.744;23.174;2024-03-02T14:52:36;10.20;99.90
15700;DHT22;7950;42.744;23.174;2024-03-02T14:55:07;10.30;99.90
15700;DHT22;7950;42.744;23.174;2024-03-02T14:57:36;10.30;99.90
15700;DHT22;7950;42.744;23.174;2024-03-02T15:00:06;10.30;99.90
15700;DHT22;7950;42.744;23.174;2024-03-02T15:02:35;10.30;99.90
15700;DHT22;7950;42.744;23.174;2024-03-02T15:05:04;10.30;99.90
15700;DHT22;7950;42.744;23.174;2024-03-02T15:07:34;10.40;99.90
15700;DHT22;7950;42.744;23.174;2024-03-02T15:10:02;10.30;99.90
15700;DHT22;7950;42.744;23.174;2024-03-02T15:12:33;10.30;99.90
15700;DHT22;7950;42.744;23.174;2024-03-02T15:15:02;10.30;99.90
15700;DHT22;7950;42.744;23.174;2024-03-02T15:17:31;10.30;99.90
15700;DHT22;7950;42.744;23.174;2024-03-02T15:20:00;10.30;99.90
15700;DHT22;7950;42.744;23.174;2024-03-02T15:22:29;10.30;99.90
15700;DHT22;7950;42.744;23.174;2024-03-02T15:24:59;10.30;99.90
15700;DHT22;7950;42.744;23.174;2024-03-02T15:27:28;10.30;99.90
15700;DHT22;7950;42.744;23.174;2024-03-02T15:29:58;10.30;99.90
15700;DHT22;7950;42.744;23.174;2024-03-02T15:32:27;10.30;99.90
15700;DHT22;7950;42.744;23.174;2024-03-02T15:34:56;10.30;99.90
15700;DHT22;7950;42.744;23.174;2024-03-02T15:37:24;10.30;99.90
15700;DHT22;7950;42.744;23.174;2024-03-02T15:39:53;10.30;99.90
15700;DHT22;7950;42.744;23.174;2024-03-02T15:42:22;10.30;99.90
15700;DHT22;7950;42.744;23.174;2024-03-02T15:44:50;10.30;99.90
15700;DHT22;7950;42.744;23.174;2024-03-02T15:47:21;10.30;99.90
15700;DHT22;7950;42.744;23.174;2024-03-02T15:49:50;10.30;99.90
15700;DHT22;7950;42.744;23.174;2024-03-02T15:52:19;10.30;99.90
15700;DHT22;7950;42.744;23.174;2024-03-02T15:54:48;10.20;99.90
15700;DHT22;7950;42.744;23.174;2024-03-02T15:57:17;10.10;99.90
15700;DHT22;7950;42.744;23.174;2024-03-02T15:59:46;10.20;99.90
15700;DHT22;7950;42.744;23.174;2024-03-02T16:02:15;10.10;99.90
15700;DHT22;7950;42.744;23.174;2024-03-02T16:04:44;10.10;99.90
15700;DHT22;7950;42.744;23.174;2024-03-02T16:07:13;10.10;99.90
15700;DHT22;7950;42.744;23.174;2024-03-02T16:09:42;10.10;99.90
15700;DHT22;7950;42.744;23.174;2024-03-02T16:12:10;10.00;99.90